createdAt,value
2023-01-18T00:02:56.179Z,66.47
2023-01-18T00:13:00.425Z,66.69
2023-01-18T00:23:05.585Z,66.62
2023-01-18T00:33:09.863Z,66.50
2023-01-18T00:43:32.134Z,66.73
2023-01-18T00:53:38.385Z,66.78
2023-01-18T01:04:00.822Z,66.76
2023-01-18T01:14:23.249Z,66.73
2023-01-18T01:24:46.633Z,66.74
2023-01-18T01:34:50.287Z,66.66
2023-01-18T01:44:55.281Z,66.39
2023-01-18T01:55:21.151Z,66.28
2023-01-18T02:05:31.403Z,66.06
2023-01-18T02:15:55.595Z,65.79
2023-01-18T02:26:30.615Z,65.27
2023-01-18T02:36:54.727Z,64.74
2023-01-18T02:46:58.780Z,64.71
2023-01-18T02:57:09.727Z,65.01
2023-01-18T03:07:21.698Z,65.76
2023-01-18T03:17:37.585Z,65.61
2023-01-18T03:28:06.927Z,65.50
2023-01-18T03:39:31.741Z,65.35
2023-01-18T03:49:36.266Z,65.85
2023-01-18T03:59:40.643Z,65.93
2023-01-18T04:09:44.528Z,65.58
2023-01-18T04:19:48.689Z,65.71
2023-01-18T04:29:52.978Z,65.32
2023-01-18T04:39:57.484Z,65.21
2023-01-18T04:50:01.374Z,65.05
2023-01-18T05:00:08.453Z,65.13
2023-01-18T05:10:16.290Z,65.42
2023-01-18T05:20:20.616Z,65.24
2023-01-18T05:30:24.520Z,65.44
2023-01-18T05:40:29.300Z,65.71
2023-01-18T05:50:33.508Z,65.78
2023-01-18T06:00:50.420Z,66.28
2023-01-18T06:10:56.679Z,66.38
2023-01-18T06:21:02.549Z,66.20
2023-01-18T06:31:08.641Z,66.43
2023-01-18T06:41:12.363Z,66.87
2023-01-18T06:51:16.238Z,67.38
2023-01-18T07:01:20.181Z,68.91
2023-01-18T07:11:24.724Z,69.81
2023-01-18T07:21:30.058Z,70.81
2023-01-18T07:31:34.668Z,71.21
2023-01-18T07:41:42.356Z,71.37
2023-01-18T07:51:46.265Z,70.81
2023-01-18T08:01:50.284Z,71.07
2023-01-18T08:11:54.276Z,71.29
2023-01-18T08:21:58.286Z,71.04
2023-01-18T08:32:03.131Z,70.90
2023-01-18T08:42:07.157Z,70.75
2023-01-18T08:52:11.350Z,70.34
2023-01-18T09:02:17.003Z,70.04
2023-01-18T09:12:21.229Z,69.77
2023-01-18T09:22:25.802Z,69.36
2023-01-18T09:32:30.966Z,69.25
2023-01-18T09:42:41.238Z,69.24
2023-01-18T09:53:07.612Z,69.05
2023-01-18T10:03:20.173Z,69.47
2023-01-18T10:13:31.588Z,69.81
2023-01-18T10:23:44.696Z,70.10
2023-01-18T10:33:55.786Z,70.37
2023-01-18T10:44:02.199Z,71.21
2023-01-18T10:54:32.497Z,72.23
2023-01-18T11:04:36.448Z,72.97
2023-01-18T11:14:41.577Z,73.56
2023-01-18T11:24:45.965Z,74.30
2023-01-18T11:34:55.805Z,74.45
2023-01-18T11:45:29.158Z,74.32
2023-01-18T11:55:41.039Z,74.36
2023-01-18T12:06:04.856Z,74.79
2023-01-18T12:16:15.666Z,74.81
2023-01-18T12:26:27.049Z,75.41
2023-01-18T12:36:54.581Z,76.58
2023-01-18T12:47:00.391Z,77.20
2023-01-18T12:57:04.886Z,78.18
2023-01-18T13:07:16.845Z,78.54
2023-01-18T13:17:38.087Z,79.34
2023-01-18T13:28:14.831Z,79.38
2023-01-18T13:38:36.229Z,79.24
2023-01-18T13:48:50.852Z,79.09
2023-01-18T13:58:59.255Z,79.17
2023-01-18T14:09:14.861Z,79.02
2023-01-18T14:19:22.440Z,79.10
2023-01-18T14:29:41.345Z,79.17
2023-01-18T14:39:45.445Z,79.17
2023-01-18T14:49:50.026Z,79.44
2023-01-18T15:00:15.405Z,79.19
2023-01-18T15:10:20.356Z,79.01
2023-01-18T15:20:24.628Z,78.78
2023-01-18T15:30:32.239Z,78.78
2023-01-18T15:40:37.059Z,78.64
2023-01-18T15:50:49.635Z,78.41
2023-01-18T16:01:06.021Z,78.28
2023-01-18T16:11:34.095Z,78.06
2023-01-18T16:21:59.945Z,78.17
2023-01-18T16:32:49.595Z,77.88
2023-01-18T16:43:32.921Z,77.73
2023-01-18T16:53:47.970Z,77.70
2023-01-18T17:04:00.044Z,77.82
2023-01-18T17:14:04.262Z,77.53
2023-01-18T17:24:10.564Z,77.53
2023-01-18T17:34:17.859Z,77.33
2023-01-18T17:44:26.932Z,77.61
2023-01-18T17:54:37.691Z,77.93
2023-01-18T18:04:42.110Z,77.68
2023-01-18T18:14:46.324Z,77.50
2023-01-18T18:24:51.712Z,77.48
2023-01-18T18:34:57.101Z,77.42
2023-01-18T18:45:02.732Z,77.22
2023-01-18T18:55:08.667Z,77.14
2023-01-18T19:05:16.353Z,77.10
2023-01-18T19:15:24.278Z,76.97
2023-01-18T19:25:28.551Z,76.90
2023-01-18T19:35:41.740Z,76.75
2023-01-18T19:45:46.911Z,76.40
2023-01-18T19:56:06.510Z,76.18
2023-01-18T20:06:16.312Z,75.82
2023-01-18T20:16:20.889Z,75.31
2023-01-18T20:26:35.847Z,75.41
2023-01-18T20:36:41.445Z,75.20
2023-01-18T20:46:47.452Z,74.88
2023-01-18T20:56:51.992Z,74.68
2023-01-18T21:06:57.911Z,74.50
2023-01-18T21:17:03.282Z,74.34
2023-01-18T21:27:07.635Z,74.43
2023-01-18T21:37:13.439Z,74.38
2023-01-18T21:47:17.816Z,74.08
2023-01-18T21:57:22.007Z,73.93
2023-01-18T22:07:28.589Z,73.45
2023-01-18T22:17:33.515Z,73.41
2023-01-18T22:27:39.596Z,73.20
2023-01-18T22:37:43.764Z,72.87
2023-01-18T22:47:48.243Z,72.71
2023-01-18T22:57:52.201Z,72.80
2023-01-18T23:07:57.088Z,72.60
2023-01-18T23:18:02.264Z,72.45
2023-01-18T23:28:06.355Z,72.32
2023-01-18T23:38:10.503Z,72.51
2023-01-18T23:48:38.151Z,72.38
2023-01-18T23:58:42.072Z,72.23
